sensor_id;sensor_type;location;lat;lon;timestamp;pressure;altitude;pressure_sealevel;temperature;humidity
13033;BME280;6583;42.632;23.298;2024-01-10T00:00:27;72928.78;;;-146.40;65.82
13033;BME280;6583;42.632;23.298;2024-01-10T00:02:54;72957.13;;;-146.40;65.95
13033;BME280;6583;42.632;23.298;2024-01-10T00:05:20;72963.22;;;-146.40;66.77
13033;BME280;6583;42.632;23.298;2024-01-10T00:07:47;72955.13;;;-146.40;67.74
13033;BME280;6583;42.632;23.298;2024-01-10T00:10:14;72959.16;;;-146.40;67.93
13033;BME280;6583;42.632;23.298;2024-01-10T00:12:40;72963.22;;;-146.40;67.52
13033;BME280;6583;42.632;23.298;2024-01-10T00:15:11;72977.38;;;-146.40;68.37
13033;BME280;6583;42.632;23.298;2024-01-10T00:17:39;72985.47;;;-146.40;68.45
13033;BME280;6583;42.632;23.298;2024-01-10T00:20:07;73007.75;;;-146.40;68.74
13033;BME280;6583;42.632;23.298;2024-01-10T00:22:34;72995.59;;;-146.40;69.46
13033;BME280;6583;42.632;23.298;2024-01-10T00:25:01;73044.19;;;-146.40;69.76
13033;BME280;6583;42.632;23.298;2024-01-10T00:27:27;73021.94;;;-146.40;71.21
13033;BME280;6583;42.632;23.298;2024-01-10T00:29:54;73028.00;;;-146.40;70.31
13033;BME280;6583;42.632;23.298;2024-01-10T00:32:23;73011.81;;;-146.40;71.60
13033;BME280;6583;42.632;23.298;2024-01-10T00:34:50;72999.66;;;-146.40;70.40
13033;BME280;6583;42.632;23.298;2024-01-10T00:37:17;72995.59;;;-146.40;69.21
13033;BME280;6583;42.632;23.298;2024-01-10T00:39:43;72995.59;;;-146.40;68.47
13033;BME280;6583;42.632;23.298;2024-01-10T00:42:10;72985.47;;;-146.40;68.74
13033;BME280;6583;42.632;23.298;2024-01-10T00:44:37;72971.31;;;-146.40;69.82
13033;BME280;6583;42.632;23.298;2024-01-10T00:47:04;72957.13;;;-146.40;71.71
13033;BME280;6583;42.632;23.298;2024-01-10T00:49:32;72940.94;;;-146.40;70.19
13033;BME280;6583;42.632;23.298;2024-01-10T00:51:59;72936.91;;;-146.40;70.09
13033;BME280;6583;42.632;23.298;2024-01-10T00:54:26;72908.53;;;-146.40;70.75
13033;BME280;6583;42.632;23.298;2024-01-10T00:56:52;72900.44;;;-146.40;69.24
13033;BME280;6583;42.632;23.298;2024-01-10T00:59:19;72912.59;;;-146.40;65.90
13033;BME280;6583;42.632;23.298;2024-01-10T01:01:46;72918.69;;;-146.40;66.13
13033;BME280;6583;42.632;23.298;2024-01-10T01:04:12;72918.69;;;-146.40;67.08
13033;BME280;6583;42.632;23.298;2024-01-10T01:06:41;72934.88;;;-146.40;66.30
13033;BME280;6583;42.632;23.298;2024-01-10T01:09:07;72934.88;;;-146.40;67.04
13033;BME280;6583;42.632;23.298;2024-01-10T01:11:34;72949.03;;;-146.40;66.79
13033;BME280;6583;42.632;23.298;2024-01-10T01:14:01;72940.94;;;-146.40;66.73
13033;BME280;6583;42.632;23.298;2024-01-10T01:16:27;72934.88;;;-146.40;68.13
13033;BME280;6583;42.632;23.298;2024-01-10T01:18:54;72926.78;;;-146.40;69.60
13033;BME280;6583;42.632;23.298;2024-01-10T01:21:21;72963.22;;;-146.40;65.99
13033;BME280;6583;42.632;23.298;2024-01-10T01:23:49;72959.16;;;-146.40;66.65
13033;BME280;6583;42.632;23.298;2024-01-10T01:26:15;72961.19;;;-146.40;68.02
13033;BME280;6583;42.632;23.298;2024-01-10T01:28:42;72949.03;;;-146.40;68.79
13033;BME280;6583;42.632;23.298;2024-01-10T01:31:09;72942.97;;;-146.40;69.70
13033;BME280;6583;42.632;23.298;2024-01-10T01:33:36;72930.81;;;-146.40;67.73
13033;BME280;6583;42.632;23.298;2024-01-10T01:36:05;72947.03;;;-146.40;66.70
13033;BME280;6583;42.632;23.298;2024-01-10T01:38:31;72955.13;;;-146.40;67.64
13033;BME280;6583;42.632;23.298;2024-01-10T01:40:59;72947.03;;;-146.40;69.18
13033;BME280;6583;42.632;23.298;2024-01-10T01:43:28;72934.88;;;-146.40;69.21
13033;BME280;6583;42.632;23.298;2024-01-10T01:45:55;72930.81;;;-146.40;69.46
13033;BME280;6583;42.632;23.298;2024-01-10T01:48:23;72904.50;;;-146.40;70.56
13033;BME280;6583;42.632;23.298;2024-01-10T01:50:54;72890.31;;;-146.40;70.57
13033;BME280;6583;42.632;23.298;2024-01-10T01:53:23;72906.53;;;-146.40;65.83
13033;BME280;6583;42.632;23.298;2024-01-10T01:55:50;72906.53;;;-146.40;66.15
13033;BME280;6583;42.632;23.298;2024-01-10T01:58:18;72898.44;;;-146.40;68.62
13033;BME280;6583;42.632;23.298;2024-01-10T02:00:46;72882.22;;;-146.40;69.07
13033;BME280;6583;42.632;23.298;2024-01-10T02:03:12;72859.97;;;-146.40;68.14
13033;BME280;6583;42.632;23.298;2024-01-10T02:05:40;72874.13;;;-146.40;64.91
13033;BME280;6583;42.632;23.298;2024-01-10T02:08:06;72888.31;;;-146.40;66.55
13033;BME280;6583;42.632;23.298;2024-01-10T02:10:34;72876.16;;;-146.40;70.26
13033;BME280;6583;42.632;23.298;2024-01-10T02:13:01;72890.31;;;-146.40;67.99
13033;BME280;6583;42.632;23.298;2024-01-10T02:15:29;72902.47;;;-146.40;65.82
13033;BME280;6583;42.632;23.298;2024-01-10T02:17:56;72914.63;;;-146.40;66.94
13033;BME280;6583;42.632;23.298;2024-01-10T02:20:23;72912.59;;;-146.40;67.97
13033;BME280;6583;42.632;23.298;2024-01-10T02:22:50;72922.72;;;-146.40;67.18
13033;BME280;6583;42.632;23.298;2024-01-10T02:25:18;72932.84;;;-146.40;66.77
13033;BME280;6583;42.632;23.298;2024-01-10T02:27:44;72914.63;;;-146.40;68.76
13033;BME280;6583;42.632;23.298;2024-01-10T02:30:12;72898.44;;;-146.40;71.46
13033;BME280;6583;42.632;23.298;2024-01-10T02:32:38;72888.31;;;-146.40;68.08
13033;BME280;6583;42.632;23.298;2024-01-10T02:35:06;72890.31;;;-146.40;67.76
13033;BME280;6583;42.632;23.298;2024-01-10T02:37:33;72878.19;;;-146.40;68.81
13033;BME280;6583;42.632;23.298;2024-01-10T02:39:59;72874.13;;;-146.40;68.40
13033;BME280;6583;42.632;23.298;2024-01-10T02:42:28;72861.97;;;-146.40;68.57
13033;BME280;6583;42.632;23.298;2024-01-10T02:44:55;72845.78;;;-146.40;68.48
13033;BME280;6583;42.632;23.298;2024-01-10T02:47:22;72835.66;;;-146.40;67.74
13033;BME280;6583;42.632;23.298;2024-01-10T02:49:49;72823.50;;;-146.40;70.13
13033;BME280;6583;42.632;23.298;2024-01-10T02:52:15;72799.22;;;-146.40;71.29
13033;BME280;6583;42.632;23.298;2024-01-10T02:54:45;72776.94;;;-146.40;70.46
13033;BME280;6583;42.632;23.298;2024-01-10T02:57:11;72764.81;;;-146.40;70.29
13033;BME280;6583;42.632;23.298;2024-01-10T02:59:39;72748.59;;;-146.40;69.24
13033;BME280;6583;42.632;23.298;2024-01-10T03:02:06;72734.44;;;-146.40;68.72
13033;BME280;6583;42.632;23.298;2024-01-10T03:04:33;72718.25;;;-146.40;68.92
13033;BME280;6583;42.632;23.298;2024-01-10T03:06:59;72712.16;;;-146.40;68.73
13033;BME280;6583;42.632;23.298;2024-01-10T03:09:26;72700.03;;;-146.40;66.36
13033;BME280;6583;42.632;23.298;2024-01-10T03:11:53;72695.97;;;-146.40;64.85
13033;BME280;6583;42.632;23.298;2024-01-10T03:14:20;72691.91;;;-146.40;63.26
13033;BME280;6583;42.632;23.298;2024-01-10T03:16:48;72687.88;;;-146.40;64.17
13033;BME280;6583;42.632;23.298;2024-01-10T03:19:15;72691.91;;;-146.40;63.90
13033;BME280;6583;42.632;23.298;2024-01-10T03:21:42;72700.03;;;-146.40;64.59
13033;BME280;6583;42.632;23.298;2024-01-10T03:24:09;72708.13;;;-146.40;65.18
13033;BME280;6583;42.632;23.298;2024-01-10T03:26:35;72704.06;;;-146.40;61.46
13033;BME280;6583;42.632;23.298;2024-01-10T03:29:02;72716.22;;;-146.40;61.43
13033;BME280;6583;42.632;23.298;2024-01-10T03:31:30;72720.25;;;-146.40;62.30
13033;BME280;6583;42.632;23.298;2024-01-10T03:33:58;72724.31;;;-146.40;61.61
13033;BME280;6583;42.632;23.298;2024-01-10T03:36:25;72712.16;;;-146.40;64.33
13033;BME280;6583;42.632;23.298;2024-01-10T03:38:52;72756.72;;;-146.40;62.16
13033;BME280;6583;42.632;23.298;2024-01-10T03:41:20;72766.81;;;-146.40;63.70
13033;BME280;6583;42.632;23.298;2024-01-10T03:43:46;72762.78;;;-146.40;63.56
13033;BME280;6583;42.632;23.298;2024-01-10T03:46:13;72764.81;;;-146.40;64.38
13033;BME280;6583;42.632;23.298;2024-01-10T03:48:40;72770.88;;;-146.40;64.45
13033;BME280;6583;42.632;23.298;2024-01-10T03:51:14;72783.03;;;-146.40;62.48
13033;BME280;6583;42.632;23.298;2024-01-10T03:53:41;72783.03;;;-146.40;64.21
13033;BME280;6583;42.632;23.298;2024-01-10T03:56:08;72787.06;;;-146.40;63.43
13033;BME280;6583;42.632;23.298;2024-01-10T03:58:35;72797.19;;;-146.40;62.83
13033;BME280;6583;42.632;23.298;2024-01-10T04:01:04;72821.50;;;-146.40;62.96
13033;BME280;6583;42.632;23.298;2024-01-10T04:03:31;72868.06;;;-146.40;62.80
13033;BME280;6583;42.632;23.298;2024-01-10T04:05:58;72882.22;;;-146.40;63.93
13033;BME280;6583;42.632;23.298;2024-01-10T04:08:26;72892.34;;;-146.40;64.87
13033;BME280;6583;42.632;23.298;2024-01-10T04:10:53;72882.22;;;-146.40;67.76
13033;BME280;6583;42.632;23.298;2024-01-10T04:13:20;72870.09;;;-146.40;69.04
13033;BME280;6583;42.632;23.298;2024-01-10T04:15:47;72847.81;;;-146.40;69.54
13033;BME280;6583;42.632;23.298;2024-01-10T04:18:14;72833.63;;;-146.40;69.80
13033;BME280;6583;42.632;23.298;2024-01-10T04:20:41;72815.41;;;-146.40;69.71
13033;BME280;6583;42.632;23.298;2024-01-10T04:23:07;72813.41;;;-146.40;65.93
13033;BME280;6583;42.632;23.298;2024-01-10T04:25:35;72809.34;;;-146.40;64.81
13033;BME280;6583;42.632;23.298;2024-01-10T04:28:02;72841.75;;;-146.40;61.29
13033;BME280;6583;42.632;23.298;2024-01-10T04:30:29;72861.97;;;-146.40;60.26
13033;BME280;6583;42.632;23.298;2024-01-10T04:32:56;72868.06;;;-146.40;61.88
13033;BME280;6583;42.632;23.298;2024-01-10T04:35:22;72861.97;;;-146.40;63.02
13033;BME280;6583;42.632;23.298;2024-01-10T04:37:49;72853.88;;;-146.40;62.27
13033;BME280;6583;42.632;23.298;2024-01-10T04:40:16;72853.88;;;-146.40;64.04
13033;BME280;6583;42.632;23.298;2024-01-10T04:42:44;72845.78;;;-146.40;64.96
13033;BME280;6583;42.632;23.298;2024-01-10T04:45:11;72841.75;;;-146.40;62.93
13033;BME280;6583;42.632;23.298;2024-01-10T04:47:38;72831.63;;;-146.40;63.06
13033;BME280;6583;42.632;23.298;2024-01-10T04:50:06;72829.59;;;-146.40;61.71
13033;BME280;6583;42.632;23.298;2024-01-10T04:52:33;72829.59;;;-146.40;62.28
13033;BME280;6583;42.632;23.298;2024-01-10T04:54:59;72829.59;;;-146.40;59.10
13033;BME280;6583;42.632;23.298;2024-01-10T04:57:27;72833.63;;;-146.40;61.31
13033;BME280;6583;42.632;23.298;2024-01-10T04:59:56;72825.53;;;-146.40;63.97
13033;BME280;6583;42.632;23.298;2024-01-10T05:02:23;72837.69;;;-146.40;59.67
13033;BME280;6583;42.632;23.298;2024-01-10T05:04:52;72841.75;;;-146.40;59.50
13033;BME280;6583;42.632;23.298;2024-01-10T05:07:18;72845.78;;;-146.40;57.76
13033;BME280;6583;42.632;23.298;2024-01-10T05:09:45;72847.81;;;-146.40;60.02
13033;BME280;6583;42.632;23.298;2024-01-10T05:12:12;72868.06;;;-146.40;58.04
13033;BME280;6583;42.632;23.298;2024-01-10T05:14:39;72876.16;;;-146.40;57.21
13033;BME280;6583;42.632;23.298;2024-01-10T05:17:07;72888.31;;;-146.40;60.08
13033;BME280;6583;42.632;23.298;2024-01-10T05:19:34;72918.69;;;-146.40;58.22
13033;BME280;6583;42.632;23.298;2024-01-10T05:22:00;72938.91;;;-146.40;59.10
13033;BME280;6583;42.632;23.298;2024-01-10T05:24:27;72936.91;;;-146.40;60.68
13033;BME280;6583;42.632;23.298;2024-01-10T05:26:54;72938.91;;;-146.40;61.38
13033;BME280;6583;42.632;23.298;2024-01-10T05:29:20;72934.88;;;-146.40;62.51
13033;BME280;6583;42.632;23.298;2024-01-10T05:31:49;72947.03;;;-146.40;60.72
13033;BME280;6583;42.632;23.298;2024-01-10T05:34:17;72942.97;;;-146.40;61.50
13033;BME280;6583;42.632;23.298;2024-01-10T05:36:44;72938.91;;;-146.40;62.25
13033;BME280;6583;42.632;23.298;2024-01-10T05:39:10;72932.84;;;-146.40;61.90
13033;BME280;6583;42.632;23.298;2024-01-10T05:41:41;72922.72;;;-146.40;64.17
13033;BME280;6583;42.632;23.298;2024-01-10T05:44:09;72932.84;;;-146.40;59.25
13033;BME280;6583;42.632;23.298;2024-01-10T05:46:35;72947.03;;;-146.40;58.78
13033;BME280;6583;42.632;23.298;2024-01-10T05:49:02;72936.91;;;-146.40;61.27
13033;BME280;6583;42.632;23.298;2024-01-10T05:51:31;72938.91;;;-146.40;60.22
13033;BME280;6583;42.632;23.298;2024-01-10T05:53:57;72934.88;;;-146.40;60.54
13033;BME280;6583;42.632;23.298;2024-01-10T05:56:24;72918.69;;;-146.40;64.57
13033;BME280;6583;42.632;23.298;2024-01-10T05:58:52;72902.47;;;-146.40;65.31
13033;BME280;6583;42.632;23.298;2024-01-10T06:01:19;72892.34;;;-146.40;63.95
13033;BME280;6583;42.632;23.298;2024-01-10T06:03:45;72890.31;;;-146.40;58.94
13033;BME280;6583;42.632;23.298;2024-01-10T06:06:12;72882.22;;;-146.40;58.82
13033;BME280;6583;42.632;23.298;2024-01-10T06:08:40;72892.34;;;-146.40;59.10
13033;BME280;6583;42.632;23.298;2024-01-10T06:11:07;72886.28;;;-146.40;58.46
13033;BME280;6583;42.632;23.298;2024-01-10T06:13:34;72878.19;;;-146.40;59.65
13033;BME280;6583;42.632;23.298;2024-01-10T06:16:02;72896.41;;;-146.40;57.04
13033;BME280;6583;42.632;23.298;2024-01-10T06:18:29;72890.31;;;-146.40;60.55
13033;BME280;6583;42.632;23.298;2024-01-10T06:20:55;72896.41;;;-146.40;56.39
13033;BME280;6583;42.632;23.298;2024-01-10T06:23:22;72892.34;;;-146.40;60.23
13033;BME280;6583;42.632;23.298;2024-01-10T06:25:50;72910.56;;;-146.40;58.21
13033;BME280;6583;42.632;23.298;2024-01-10T06:28:18;72918.69;;;-146.40;57.62
13033;BME280;6583;42.632;23.298;2024-01-10T06:30:45;72914.63;;;-146.40;61.21
13033;BME280;6583;42.632;23.298;2024-01-10T06:33:12;72910.56;;;-146.40;60.58
13033;BME280;6583;42.632;23.298;2024-01-10T06:35:39;72914.63;;;-146.40;58.65
13033;BME280;6583;42.632;23.298;2024-01-10T06:38:06;72916.66;;;-146.40;60.48
13033;BME280;6583;42.632;23.298;2024-01-10T06:40:33;72914.63;;;-146.40;58.68
13033;BME280;6583;42.632;23.298;2024-01-10T06:43:01;72918.69;;;-146.40;58.85
13033;BME280;6583;42.632;23.298;2024-01-10T06:45:28;72918.69;;;-146.40;60.72
13033;BME280;6583;42.632;23.298;2024-01-10T06:47:55;72922.72;;;-146.40;59.06
13033;BME280;6583;42.632;23.298;2024-01-10T06:50:21;72918.69;;;-146.40;61.40
13033;BME280;6583;42.632;23.298;2024-01-10T06:52:49;72912.59;;;-146.40;59.92
13033;BME280;6583;42.632;23.298;2024-01-10T06:55:16;72918.69;;;-146.40;59.32
13033;BME280;6583;42.632;23.298;2024-01-10T06:57:43;72904.50;;;-146.40;61.09
13033;BME280;6583;42.632;23.298;2024-01-10T07:00:13;72910.56;;;-146.40;58.78
13033;BME280;6583;42.632;23.298;2024-01-10T07:02:40;72928.78;;;-146.40;58.47
13033;BME280;6583;42.632;23.298;2024-01-10T07:05:08;72953.09;;;-146.40;57.58
13033;BME280;6583;42.632;23.298;2024-01-10T07:07:34;72987.50;;;-146.40;56.83
13033;BME280;6583;42.632;23.298;2024-01-10T07:10:01;72983.47;;;-146.40;59.27
13033;BME280;6583;42.632;23.298;2024-01-10T07:12:30;73005.72;;;-146.40;59.48
13033;BME280;6583;42.632;23.298;2024-01-10T07:14:57;73013.84;;;-146.40;59.56
13033;BME280;6583;42.632;23.298;2024-01-10T07:17:25;73054.31;;;-146.40;59.19
13033;BME280;6583;42.632;23.298;2024-01-10T07:19:52;73042.19;;;-146.40;61.55
13033;BME280;6583;42.632;23.298;2024-01-10T07:22:18;73034.06;;;-146.40;63.71
13033;BME280;6583;42.632;23.298;2024-01-10T07:24:45;73036.09;;;-146.40;61.72
13033;BME280;6583;42.632;23.298;2024-01-10T07:27:12;73040.16;;;-146.40;60.56
13033;BME280;6583;42.632;23.298;2024-01-10T07:29:40;73025.97;;;-146.40;60.95
13033;BME280;6583;42.632;23.298;2024-01-10T07:32:07;73023.94;;;-146.40;61.46
13033;BME280;6583;42.632;23.298;2024-01-10T07:34:37;73021.94;;;-146.40;59.38
13033;BME280;6583;42.632;23.298;2024-01-10T07:37:04;73064.44;;;-146.40;58.07
13033;BME280;6583;42.632;23.298;2024-01-10T07:39:31;73086.72;;;-146.40;58.71
13033;BME280;6583;42.632;23.298;2024-01-10T07:41:58;73102.91;;;-146.40;59.02
13033;BME280;6583;42.632;23.298;2024-01-10T07:44:27;73106.97;;;-146.40;60.25
13033;BME280;6583;42.632;23.298;2024-01-10T07:46:54;73090.78;;;-146.40;60.08
13033;BME280;6583;42.632;23.298;2024-01-10T07:49:21;73115.06;;;-146.40;58.60
13033;BME280;6583;42.632;23.298;2024-01-10T07:51:50;73131.25;;;-146.40;59.65
13033;BME280;6583;42.632;23.298;2024-01-10T07:54:17;73115.06;;;-146.40;60.13
13033;BME280;6583;42.632;23.298;2024-01-10T07:56:43;73092.78;;;-146.40;61.72
13033;BME280;6583;42.632;23.298;2024-01-10T07:59:10;73084.69;;;-146.40;61.87
13033;BME280;6583;42.632;23.298;2024-01-10T08:01:40;73068.50;;;-146.40;60.19
13033;BME280;6583;42.632;23.298;2024-01-10T08:04:06;73076.59;;;-146.40;59.63
13033;BME280;6583;42.632;23.298;2024-01-10T08:06:33;73113.03;;;-146.40;58.73
13033;BME280;6583;42.632;23.298;2024-01-10T08:09:02;73113.03;;;-146.40;59.06
13033;BME280;6583;42.632;23.298;2024-01-10T08:11:30;73121.13;;;-146.40;59.34
13033;BME280;6583;42.632;23.298;2024-01-10T08:13:56;73157.59;;;-146.40;59.41
13033;BME280;6583;42.632;23.298;2024-01-10T08:16:23;73161.63;;;-146.40;60.42
13033;BME280;6583;42.632;23.298;2024-01-10T08:18:50;73185.94;;;-146.40;60.63
13033;BME280;6583;42.632;23.298;2024-01-10T08:21:16;73165.69;;;-146.40;62.07
13033;BME280;6583;42.632;23.298;2024-01-10T08:23:44;73147.47;;;-146.40;61.81
13033;BME280;6583;42.632;23.298;2024-01-10T08:26:12;73177.84;;;-146.40;60.28
13033;BME280;6583;42.632;23.298;2024-01-10T08:28:39;73169.72;;;-146.40;61.97
13033;BME280;6583;42.632;23.298;2024-01-10T08:31:07;73141.38;;;-146.40;63.86
13033;BME280;6583;42.632;23.298;2024-01-10T08:33:33;73123.16;;;-146.40;64.15
13033;BME280;6583;42.632;23.298;2024-01-10T08:36:00;73109.00;;;-146.40;63.74
13033;BME280;6583;42.632;23.298;2024-01-10T08:38:27;73068.50;;;-146.40;66.12
13033;BME280;6583;42.632;23.298;2024-01-10T08:40:54;73056.34;;;-146.40;62.99
13033;BME280;6583;42.632;23.298;2024-01-10T08:43:22;73036.09;;;-146.40;62.21
13033;BME280;6583;42.632;23.298;2024-01-10T08:45:48;73015.84;;;-146.40;62.27
13033;BME280;6583;42.632;23.298;2024-01-10T08:48:15;73005.72;;;-146.40;61.15
13033;BME280;6583;42.632;23.298;2024-01-10T08:50:42;73025.97;;;-146.40;59.48
13033;BME280;6583;42.632;23.298;2024-01-10T08:53:09;73023.94;;;-146.40;60.66
13033;BME280;6583;42.632;23.298;2024-01-10T08:55:36;73017.88;;;-146.40;61.65
13033;BME280;6583;42.632;23.298;2024-01-10T08:58:03;73015.84;;;-146.40;62.58
13033;BME280;6583;42.632;23.298;2024-01-10T09:00:31;73017.88;;;-146.40;61.49
13033;BME280;6583;42.632;23.298;2024-01-10T09:02:58;73021.94;;;-146.40;62.06
13033;BME280;6583;42.632;23.298;2024-01-10T09:05:25;73007.75;;;-146.40;62.47
13033;BME280;6583;42.632;23.298;2024-01-10T09:07:51;72991.56;;;-146.40;63.11
13033;BME280;6583;42.632;23.298;2024-01-10T09:10:19;73025.97;;;-146.40;62.07
13033;BME280;6583;42.632;23.298;2024-01-10T09:12:47;73005.72;;;-146.40;61.78
13033;BME280;6583;42.632;23.298;2024-01-10T09:15:14;73028.00;;;-146.40;62.22
13033;BME280;6583;42.632;23.298;2024-01-10T09:17:43;73011.81;;;-146.40;62.28
13033;BME280;6583;42.632;23.298;2024-01-10T09:20:10;72999.66;;;-146.40;64.07
13033;BME280;6583;42.632;23.298;2024-01-10T09:22:37;73003.72;;;-146.40;63.34
13033;BME280;6583;42.632;23.298;2024-01-10T09:25:05;73001.69;;;-146.40;64.87
13033;BME280;6583;42.632;23.298;2024-01-10T09:27:32;72973.34;;;-146.40;64.78
13033;BME280;6583;42.632;23.298;2024-01-10T09:29:59;72967.25;;;-146.40;63.86
13033;BME280;6583;42.632;23.298;2024-01-10T09:32:27;72947.03;;;-146.40;63.92
13033;BME280;6583;42.632;23.298;2024-01-10T09:34:55;72932.84;;;-146.40;63.72
13033;BME280;6583;42.632;23.298;2024-01-10T09:37:22;72906.53;;;-146.40;62.82
13033;BME280;6583;42.632;23.298;2024-01-10T09:39:49;72890.31;;;-146.40;63.14
13033;BME280;6583;42.632;23.298;2024-01-10T09:42:15;72886.28;;;-146.40;61.96
13033;BME280;6583;42.632;23.298;2024-01-10T09:44:42;72902.47;;;-146.40;61.00
13033;BME280;6583;42.632;23.298;2024-01-10T09:47:09;72892.34;;;-146.40;62.22
13033;BME280;6583;42.632;23.298;2024-01-10T09:49:36;72884.25;;;-146.40;62.22
13033;BME280;6583;42.632;23.298;2024-01-10T09:52:10;72876.16;;;-146.40;62.28
13033;BME280;6583;42.632;23.298;2024-01-10T09:54:38;72870.09;;;-146.40;62.04
13033;BME280;6583;42.632;23.298;2024-01-10T09:57:06;72861.97;;;-146.40;61.81
13033;BME280;6583;42.632;23.298;2024-01-10T09:59:33;72853.88;;;-146.40;60.84
13033;BME280;6583;42.632;23.298;2024-01-10T10:02:01;72853.88;;;-146.40;60.57
13033;BME280;6583;42.632;23.298;2024-01-10T10:04:30;72853.88;;;-146.40;60.60
13033;BME280;6583;42.632;23.298;2024-01-10T10:07:00;72837.69;;;-146.40;59.97
13033;BME280;6583;42.632;23.298;2024-01-10T10:09:29;72849.84;;;-146.40;60.31
13033;BME280;6583;42.632;23.298;2024-01-10T10:11:56;72870.09;;;-146.40;60.33
13033;BME280;6583;42.632;23.298;2024-01-10T10:14:24;72857.94;;;-146.40;60.36
13033;BME280;6583;42.632;23.298;2024-01-10T10:16:51;72861.97;;;-146.40;61.47
13033;BME280;6583;42.632;23.298;2024-01-10T10:19:22;72859.97;;;-146.40;61.06
13033;BME280;6583;42.632;23.298;2024-01-10T10:21:49;72843.75;;;-146.40;60.06
13033;BME280;6583;42.632;23.298;2024-01-10T10:24:16;72839.72;;;-146.40;61.69
13033;BME280;6583;42.632;23.298;2024-01-10T10:26:45;72833.63;;;-146.40;62.04
13033;BME280;6583;42.632;23.298;2024-01-10T10:29:12;72864.00;;;-146.40;60.40
13033;BME280;6583;42.632;23.298;2024-01-10T10:31:38;72857.94;;;-146.40;61.69
13033;BME280;6583;42.632;23.298;2024-01-10T10:34:05;72829.59;;;-146.40;62.13
13033;BME280;6583;42.632;23.298;2024-01-10T10:36:32;72809.34;;;-146.40;62.38
13033;BME280;6583;42.632;23.298;2024-01-10T10:39:00;72803.28;;;-146.40;61.74
13033;BME280;6583;42.632;23.298;2024-01-10T10:41:30;72787.06;;;-146.40;62.08
13033;BME280;6583;42.632;23.298;2024-01-10T10:44:00;72766.81;;;-146.40;61.03
13033;BME280;6583;42.632;23.298;2024-01-10T10:46:30;72758.72;;;-146.40;59.87
13033;BME280;6583;42.632;23.298;2024-01-10T10:48:59;72752.66;;;-146.40;59.31
13033;BME280;6583;42.632;23.298;2024-01-10T10:51:33;72738.50;;;-146.40;59.54
13033;BME280;6583;42.632;23.298;2024-01-10T10:54:00;72740.50;;;-146.40;58.86
13033;BME280;6583;42.632;23.298;2024-01-10T10:56:29;72736.47;;;-146.40;59.27
13033;BME280;6583;42.632;23.298;2024-01-10T10:58:56;72722.28;;;-146.40;59.20
13033;BME280;6583;42.632;23.298;2024-01-10T11:01:27;72736.47;;;-146.40;59.42
13033;BME280;6583;42.632;23.298;2024-01-10T11:03:54;72744.56;;;-146.40;58.51
13033;BME280;6583;42.632;23.298;2024-01-10T11:06:22;72781.00;;;-146.40;59.39
13033;BME280;6583;42.632;23.298;2024-01-10T11:08:52;72772.91;;;-146.40;58.83
13033;BME280;6583;42.632;23.298;2024-01-10T11:11:35;72752.66;;;-146.40;60.93
13033;BME280;6583;42.632;23.298;2024-01-10T11:14:19;72754.69;;;-146.40;61.12
13033;BME280;6583;42.632;23.298;2024-01-10T11:17:18;72724.31;;;-146.40;60.94
13033;BME280;6583;42.632;23.298;2024-01-10T11:20:14;72722.28;;;-146.40;60.56
13033;BME280;6583;42.632;23.298;2024-01-10T11:23:02;72714.19;;;-146.40;60.63
13033;BME280;6583;42.632;23.298;2024-01-10T11:25:35;72708.13;;;-146.40;59.70
13033;BME280;6583;42.632;23.298;2024-01-10T11:28:02;72720.25;;;-146.40;60.03
13033;BME280;6583;42.632;23.298;2024-01-10T11:30:33;72712.16;;;-146.40;60.31
13033;BME280;6583;42.632;23.298;2024-01-10T11:33:18;72706.09;;;-146.40;60.48
13033;BME280;6583;42.632;23.298;2024-01-10T11:36:06;72700.03;;;-146.40;61.17
13033;BME280;6583;42.632;23.298;2024-01-10T11:38:38;72695.97;;;-146.40;59.67
13033;BME280;6583;42.632;23.298;2024-01-10T11:41:05;72685.84;;;-146.40;60.74
13033;BME280;6583;42.632;23.298;2024-01-10T11:43:33;72675.72;;;-146.40;60.95
13033;BME280;6583;42.632;23.298;2024-01-10T11:46:01;72671.69;;;-146.40;59.85
13033;BME280;6583;42.632;23.298;2024-01-10T11:48:32;72659.53;;;-146.40;61.13
13033;BME280;6583;42.632;23.298;2024-01-10T11:50:59;72645.34;;;-146.40;61.04
13033;BME280;6583;42.632;23.298;2024-01-10T11:53:42;72647.38;;;-146.40;59.66
13033;BME280;6583;42.632;23.298;2024-01-10T11:56:12;72639.28;;;-146.40;59.45
13033;BME280;6583;42.632;23.298;2024-01-10T11:59:11;72619.03;;;-146.40;59.28
13033;BME280;6583;42.632;23.298;2024-01-10T12:01:38;72610.94;;;-146.40;58.63
13033;BME280;6583;42.632;23.298;2024-01-10T12:04:08;72602.84;;;-146.40;59.46
13033;BME280;6583;42.632;23.298;2024-01-10T12:06:36;72602.84;;;-146.40;59.65
13033;BME280;6583;42.632;23.298;2024-01-10T12:09:03;72588.69;;;-146.40;59.11
13033;BME280;6583;42.632;23.298;2024-01-10T12:11:34;72578.56;;;-146.40;59.70
13033;BME280;6583;42.632;23.298;2024-01-10T12:14:01;72580.56;;;-146.40;59.28
13033;BME280;6583;42.632;23.298;2024-01-10T12:16:28;72574.50;;;-146.40;58.73
13033;BME280;6583;42.632;23.298;2024-01-10T12:18:55;72562.34;;;-146.40;59.36
13033;BME280;6583;42.632;23.298;2024-01-10T12:21:23;72556.28;;;-146.40;58.10
13033;BME280;6583;42.632;23.298;2024-01-10T12:23:50;72560.34;;;-146.40;59.67
13033;BME280;6583;42.632;23.298;2024-01-10T12:26:18;72570.44;;;-146.40;57.96
13033;BME280;6583;42.632;23.298;2024-01-10T12:28:53;72578.56;;;-146.40;58.93
13033;BME280;6583;42.632;23.298;2024-01-10T12:31:20;72590.69;;;-146.40;59.11
13033;BME280;6583;42.632;23.298;2024-01-10T12:33:48;72610.94;;;-146.40;57.66
13033;BME280;6583;42.632;23.298;2024-01-10T12:36:17;72606.91;;;-146.40;60.43
13033;BME280;6583;42.632;23.298;2024-01-10T12:38:46;72602.84;;;-146.40;61.40
13033;BME280;6583;42.632;23.298;2024-01-10T12:41:14;72623.09;;;-146.40;61.37
13033;BME280;6583;42.632;23.298;2024-01-10T12:43:42;72608.91;;;-146.40;61.77